Time;durP1;ratioP1;P1;durP2;ratioP2;P2;SDS_P1;SDS_P2;PMS_P1;PMS_P2;Temp;Humidity;BMP_temperature;BMP_pressure;BME280_temperature;BME280_humidity;BME280_pressure;Samples;Min_cycle;Max_cycle;Signal;HPM_P1;HPM_P2
2022/11/29 00:01:38;;;;;;;91.03;31.15;;;;;;;8.52;100.00;101346.72;4933590;28;20067;-71
2022/11/29 00:04:06;;;;;;;98.28;31.73;;;;;;;8.53;100.00;101340.56;4931472;28;20483;-71
2022/11/29 00:06:35;;;;;;;84.15;29.65;;;;;;;8.54;100.00;101343.19;4934401;28;20048;-71
2022/11/29 00:09:08;;;;;;;80.25;29.38;;;;;;;8.55;100.00;101342.28;4932577;28;20554;-71
2022/11/29 00:14:27;;;;;;;77.18;28.60;;;;;;;8.54;100.00;101343.19;4931219;28;20040;-71
2022/11/29 00:17:00;;;;;;;83.88;27.67;;;;;;;8.53;100.00;101344.09;4928098;29;20577;-71
2022/11/29 00:19:29;;;;;;;84.60;29.30;;;;;;;8.52;100.00;101344.97;4929535;28;20119;-71
2022/11/29 00:21:57;;;;;;;79.20;26.73;;;;;;;8.52;100.00;101347.59;4922877;29;20048;-71
2022/11/29 00:24:24;;;;;;;72.35;28.00;;;;;;;8.54;100.00;101350.19;4931993;28;20056;-72
2022/11/29 00:26:51;;;;;;;77.55;28.60;;;;;;;8.54;100.00;101342.31;4925561;29;20079;-72
2022/11/29 00:29:18;;;;;;;78.57;27.48;;;;;;;8.53;100.00;101345.81;4927933;29;20044;-72
2022/11/29 00:31:45;;;;;;;74.15;26.85;;;;;;;8.50;100.00;101343.22;4932702;28;20100;-72
2022/11/29 00:34:12;;;;;;;80.18;27.98;;;;;;;8.47;100.00;101346.78;4928726;28;20427;-72
2022/11/29 00:36:39;;;;;;;83.22;28.98;;;;;;;8.46;100.00;101349.41;4933679;28;20131;-70
2022/11/29 00:39:10;;;;;;;74.25;26.70;;;;;;;8.40;100.00;101345.94;4929816;28;20052;-70
2022/11/29 00:41:38;;;;;;;83.85;27.90;;;;;;;8.35;100.00;101354.78;4932456;29;20071;-70
2022/11/29 00:44:06;;;;;;;74.45;27.23;;;;;;;8.32;100.00;101360.94;4927743;28;20044;-70
2022/11/29 00:46:33;;;;;;;77.53;27.83;;;;;;;8.29;100.00;101353.09;4919787;29;20056;-70
2022/11/29 00:49:00;;;;;;;71.43;25.95;;;;;;;8.28;100.00;101354.03;4932926;28;20040;-70
2022/11/29 00:51:27;;;;;;;72.00;25.60;;;;;;;8.26;100.00;101362.78;4933698;28;20092;-71
2022/11/29 00:53:55;;;;;;;76.03;26.05;;;;;;;8.21;100.00;101361.09;4931644;28;20119;-70
2022/11/29 00:56:22;;;;;;;77.10;26.20;;;;;;;8.19;100.00;101362.00;4933354;28;20055;-71
2022/11/29 00:58:49;;;;;;;75.78;25.55;;;;;;;8.18;100.00;101355.88;4931346;28;21556;-70
2022/11/29 01:01:16;;;;;;;73.22;25.63;;;;;;;8.17;100.00;101362.00;4932573;29;20040;-70
2022/11/29 01:03:43;;;;;;;73.10;27.30;;;;;;;8.16;100.00;101360.28;4924341;28;20040;-71
2022/11/29 01:06:15;;;;;;;73.10;26.23;;;;;;;8.16;100.00;101368.16;4932628;28;20092;-72
2022/11/29 01:08:47;;;;;;;61.85;25.58;;;;;;;8.14;100.00;101359.41;4925180;28;20056;-71
2022/11/29 01:11:20;;;;;;;82.88;26.92;;;;;;;8.12;100.00;101370.81;4918208;29;20047;-71
2022/11/29 01:13:57;;;;;;;81.97;28.52;;;;;;;8.07;100.00;101363.00;4918935;29;20785;-72
2022/11/29 01:16:26;;;;;;;82.88;27.42;;;;;;;8.02;100.00;101365.69;4918762;29;20048;-71
2022/11/29 01:18:54;;;;;;;80.18;27.73;;;;;;;7.97;100.00;101366.63;4932116;28;20052;-72
2022/11/29 01:21:23;;;;;;;79.13;27.83;;;;;;;7.95;100.00;101361.41;4932724;28;20578;-71
2022/11/29 01:23:52;;;;;;;83.68;29.20;;;;;;;7.95;100.00;101369.28;4931464;28;20849;-71
2022/11/29 01:26:29;;;;;;;74.80;27.05;;;;;;;7.96;100.00;101365.78;4924717;28;20917;-71
2022/11/29 01:28:57;;;;;;;80.60;28.30;;;;;;;7.97;100.00;101375.38;4918051;29;20111;-71
2022/11/29 01:31:34;;;;;;;70.07;28.52;;;;;;;7.97;100.00;101371.88;4930330;28;20048;-70
2022/11/29 01:34:04;;;;;;;66.07;27.15;;;;;;;7.96;100.00;101376.28;4920214;28;20066;-71
2022/11/29 01:36:31;;;;;;;60.42;27.08;;;;;;;7.96;100.00;101364.88;4925493;28;20044;-71
2022/11/29 01:39:00;;;;;;;79.75;28.95;;;;;;;7.97;100.00;101371.88;4929276;29;20872;-72
2022/11/29 01:41:33;;;;;;;71.88;27.13;;;;;;;7.95;100.00;101381.50;4928005;28;20056;-73
2022/11/29 01:44:25;;;;;;;67.40;28.55;;;;;;;7.95;100.00;101382.41;4927200;28;20880;-72
2022/11/29 01:46:54;;;;;;;76.43;27.52;;;;;;;7.93;100.00;101373.66;4927924;29;20048;-71
2022/11/29 01:49:29;;;;;;;77.35;27.08;;;;;;;7.95;100.00;101381.50;4925461;28;20419;-71
2022/11/29 01:52:08;;;;;;;64.18;25.98;;;;;;;7.97;100.00;101385.88;4928586;29;20048;-71
2022/11/29 01:54:42;;;;;;;68.40;26.58;;;;;;;7.98;100.00;101381.50;4932281;28;20493;-71
2022/11/29 01:57:10;;;;;;;80.95;26.92;;;;;;;7.98;100.00;101387.63;4932094;28;20048;-72
2022/11/29 01:59:45;;;;;;;63.50;25.85;;;;;;;8.01;100.00;101384.09;4929638;28;20076;-71
2022/11/29 02:02:19;;;;;;;70.18;25.85;;;;;;;8.00;100.00;101393.72;4924361;28;20048;-72
2022/11/29 02:04:48;;;;;;;103.68;28.33;;;;;;;7.98;100.00;101387.63;4929158;29;20135;-72
2022/11/29 02:07:16;;;;;;;101.05;28.65;;;;;;;7.97;100.00;101390.25;4932704;28;20725;-72
2022/11/29 02:09:43;;;;;;;90.03;27.52;;;;;;;7.93;100.00;101384.16;4918392;28;20511;-72
2022/11/29 02:12:38;;;;;;;99.18;27.75;;;;;;;7.95;100.00;101387.66;4915292;29;20051;-72
2022/11/29 02:15:26;;;;;;;75.95;27.77;;;;;;;7.97;100.00;101385.88;4918031;28;20048;-72
2022/11/29 02:18:09;;;;;;;80.70;27.73;;;;;;;7.95;100.00;101390.28;4925844;29;20481;-72
2022/11/29 02:21:08;;;;;;;86.88;29.60;;;;;;;7.97;100.00;101387.63;4923268;29;20051;-72
2022/11/29 02:24:00;;;;;;;69.82;27.10;;;;;;;7.99;100.00;101394.59;4933938;29;20048;-71
2022/11/29 02:27:13;;;;;;;80.32;26.90;;;;;;;7.99;100.00;101394.59;4935603;28;20052;-72
2022/11/29 02:30:40;;;;;;;93.50;31.65;;;;;;;8.03;100.00;101385.81;4929006;29;20135;-72
2022/11/29 02:33:37;;;;;;;102.18;31.70;;;;;;;8.07;100.00;101386.63;4931437;28;20143;-71
2022/11/29 02:36:29;;;;;;;75.65;27.67;;;;;;;8.11;100.00;101396.25;4934336;28;20525;-71
2022/11/29 02:39:13;;;;;;;79.88;27.33;;;;;;;8.11;100.00;101387.47;4931694;29;20044;-71
2022/11/29 02:42:21;;;;;;;82.05;29.42;;;;;;;8.12;100.00;101397.97;4934049;28;20459;-71
2022/11/29 02:45:13;;;;;;;79.55;27.60;;;;;;;8.15;100.00;101394.44;4930517;29;20101;-71
2022/11/29 02:48:20;;;;;;;90.80;29.17;;;;;;;8.15;100.00;101399.69;4916259;29;20049;-71
2022/11/29 02:51:45;;;;;;;97.53;30.42;;;;;;;8.18;100.00;101399.66;4926704;29;20044;-71
2022/11/29 02:54:26;;;;;;;88.10;30.15;;;;;;;8.19;100.00;101406.66;4923861;29;20056;-71
2022/11/29 02:57:37;;;;;;;101.35;32.03;;;;;;;8.22;100.00;101411.88;4923793;28;20512;-72
2022/11/29 03:00:12;;;;;;;96.05;30.00;;;;;;;8.21;100.00;101413.63;4930826;29;20048;-71
2022/11/29 03:02:56;;;;;;;91.97;29.67;;;;;;;8.20;100.00;101413.63;4929366;28;20044;-72
2022/11/29 03:05:47;;;;;;;83.05;29.55;;;;;;;8.21;100.00;101425.88;4919553;29;20521;-71
2022/11/29 03:08:51;;;;;;;86.68;29.77;;;;;;;8.19;100.00;101425.06;4921558;29;20044;-71
2022/11/29 03:11:55;;;;;;;86.72;29.27;;;;;;;8.20;100.00;101432.00;4924107;29;20040;-71
2022/11/29 03:14:56;;;;;;;83.70;29.40;;;;;;;8.21;100.00;101432.03;4931654;29;20071;-71
2022/11/29 03:18:00;;;;;;;90.15;28.80;;;;;;;8.23;100.00;101426.75;4932706;28;20040;-71
2022/11/29 03:20:54;;;;;;;97.47;30.83;;;;;;;8.25;100.00;101427.59;4933139;28;20040;-71
2022/11/29 03:23:37;;;;;;;97.90;31.13;;;;;;;8.23;100.00;101434.63;4913871;29;20810;-71
2022/11/29 03:26:13;;;;;;;88.07;30.30;;;;;;;8.22;100.00;101430.25;4934148;28;20044;-71
2022/11/29 03:29:15;;;;;;;106.93;33.47;;;;;;;8.27;100.00;101435.44;4924047;28;20044;-71
2022/11/29 03:32:03;;;;;;;98.85;31.13;;;;;;;8.27;100.00;101445.97;4927177;29;20058;-71
2022/11/29 03:35:02;;;;;;;101.88;31.17;;;;;;;8.29;100.00;101438.94;4931669;28;20449;-71
2022/11/29 03:38:13;;;;;;;88.53;30.23;;;;;;;8.28;100.00;101445.97;4930693;29;20048;-71
2022/11/29 03:41:22;;;;;;;89.95;28.98;;;;;;;8.28;100.00;101448.59;4931327;28;20067;-71
2022/11/29 03:44:06;;;;;;;91.50;30.92;;;;;;;8.26;100.00;101452.09;4930604;29;20051;-71
2022/11/29 03:46:48;;;;;;;92.53;31.15;;;;;;;8.26;100.00;101458.22;4940377;28;20076;-71
2022/11/29 03:49:33;;;;;;;94.88;30.70;;;;;;;8.27;100.00;101461.72;4931740;28;20108;-71
2022/11/29 03:52:41;;;;;;;110.68;31.73;;;;;;;8.26;100.00;101459.97;4926112;28;20047;-71
2022/11/29 03:55:20;;;;;;;103.10;32.38;;;;;;;8.27;100.00;101464.34;4928990;29;20040;-71
2022/11/29 03:58:21;;;;;;;110.22;33.05;;;;;;;8.27;100.00;101462.59;4923466;28;20052;-71
2022/11/29 04:01:00;;;;;;;106.93;32.22;;;;;;;8.27;100.00;101469.59;4922646;29;20044;-71
2022/11/29 04:04:04;;;;;;;102.20;32.03;;;;;;;8.25;100.00;101469.63;4927640;29;20102;-71
2022/11/29 04:06:59;;;;;;;87.20;30.00;;;;;;;8.26;100.00;101468.75;4927686;28;20048;-72
2022/11/29 04:09:49;;;;;;;99.63;30.25;;;;;;;8.28;100.00;101471.34;4922877;29;20092;-72
2022/11/29 04:12:40;;;;;;;90.57;29.85;;;;;;;8.29;100.00;101479.19;4940823;28;20044;-70
2022/11/29 04:15:41;;;;;;;95.15;30.85;;;;;;;8.32;100.00;101475.69;4947094;28;20040;-71
2022/11/29 04:18:35;;;;;;;91.95;29.58;;;;;;;8.31;100.00;101480.06;4935571;28;20037;-70
2022/11/29 04:21:32;;;;;;;96.70;30.30;;;;;;;8.33;100.00;101488.81;4925565;28;20109;-72
2022/11/29 04:24:55;;;;;;;90.70;29.63;;;;;;;8.34;100.00;101495.78;4931705;29;20051;-71
2022/11/29 04:27:48;;;;;;;97.22;30.38;;;;;;;8.36;100.00;101495.78;4915226;28;20068;-71
2022/11/29 04:30:24;;;;;;;96.40;29.50;;;;;;;8.35;100.00;101491.41;4925707;28;20519;-71
2022/11/29 04:33:28;;;;;;;103.82;31.27;;;;;;;8.36;100.00;101486.16;4933186;29;20055;-71
2022/11/29 04:36:31;;;;;;;97.00;32.00;;;;;;;8.36;100.00;101486.16;4929807;28;20059;-71
2022/11/29 04:39:24;;;;;;;113.82;31.17;;;;;;;8.36;100.00;101483.53;4929425;29;20040;-71
2022/11/29 04:42:33;;;;;;;96.82;30.38;;;;;;;8.35;100.00;101487.03;4923908;28;20092;-71
2022/11/29 04:46:02;;;;;;;100.65;31.17;;;;;;;8.34;100.00;101487.91;4935668;28;20800;-70
2022/11/29 04:49:18;;;;;;;98.78;30.67;;;;;;;8.32;100.00;101487.06;4920897;29;20050;-70
2022/11/29 04:52:15;;;;;;;99.68;31.45;;;;;;;8.34;100.00;101494.94;4912686;29;20689;-71
2022/11/29 04:55:34;;;;;;;97.60;30.30;;;;;;;8.35;100.00;101496.66;4924434;29;20048;-68
2022/11/29 04:58:21;;;;;;;93.13;30.38;;;;;;;8.35;100.00;101502.78;4921438;29;20597;-68
2022/11/29 05:01:31;;;;;;;108.97;31.70;;;;;;;8.36;100.00;101504.53;4930648;29;20040;-68
2022/11/29 05:04:18;;;;;;;94.53;29.55;;;;;;;8.35;100.00;101505.41;4929804;29;20056;-68
2022/11/29 05:07:10;;;;;;;109.40;31.55;;;;;;;8.34;100.00;101508.94;4928863;29;20048;-68
2022/11/29 05:10:19;;;;;;;106.22;32.75;;;;;;;8.33;100.00;101520.31;4924789;28;20055;-68
2022/11/29 05:13:23;;;;;;;103.65;30.63;;;;;;;8.34;100.00;101526.47;4933814;28;20051;-68
2022/11/29 05:16:37;;;;;;;114.97;33.33;;;;;;;8.34;100.00;101526.47;4920017;28;20765;-68
2022/11/29 05:19:45;;;;;;;145.65;34.00;;;;;;;8.33;100.00;101536.09;4933518;28;20043;-67
2022/11/29 05:22:38;;;;;;;115.57;33.28;;;;;;;8.35;100.00;101547.47;4932791;28;20066;-68
2022/11/29 05:25:53;;;;;;;119.38;32.65;;;;;;;8.32;100.00;101539.59;4922060;29;20042;-68
2022/11/29 05:28:56;;;;;;;164.52;36.33;;;;;;;8.31;100.00;101547.50;4920954;29;20063;-67
2022/11/29 05:31:54;;;;;;;182.23;34.35;;;;;;;8.28;100.00;101548.41;4932319;28;20494;-70
2022/11/29 05:34:48;;;;;;;131.27;32.58;;;;;;;8.26;100.00;101550.19;4934809;28;20051;-71
2022/11/29 05:37:43;;;;;;;108.70;31.45;;;;;;;8.24;100.00;101550.16;4936492;28;20048;-70
2022/11/29 05:40:13;;;;;;;105.20;31.50;;;;;;;8.24;100.00;101552.78;4940782;28;20078;-71
2022/11/29 05:43:20;;;;;;;117.18;30.58;;;;;;;8.24;100.00;101551.94;4933995;28;20484;-71
2022/11/29 05:46:05;;;;;;;253.35;34.03;;;;;;;8.23;100.00;101558.97;4938608;28;20532;-70
2022/11/29 05:48:49;;;;;;;124.43;29.98;;;;;;;8.18;100.00;101557.25;4937344;28;20044;-69
2022/11/29 05:51:32;;;;;;;134.95;32.50;;;;;;;8.14;100.00;101556.38;4938016;28;20040;-69
2022/11/29 05:54:18;;;;;;;107.82;29.25;;;;;;;8.13;100.00;101564.28;4938425;28;20071;-69
2022/11/29 05:57:13;;;;;;;86.05;28.88;;;;;;;8.19;100.00;101564.25;4936442;28;20864;-69
2022/11/29 05:59:48;;;;;;;93.35;29.63;;;;;;;8.18;100.00;101570.41;4940959;28;20052;-69
2022/11/29 06:03:13;;;;;;;178.27;33.35;;;;;;;8.16;100.00;101572.16;4922726;28;20102;-69
2022/11/29 06:05:55;;;;;;;97.17;29.50;;;;;;;8.13;100.00;101586.19;4925699;28;20885;-69
2022/11/29 06:09:04;;;;;;;117.60;30.70;;;;;;;8.14;100.00;101589.69;4932978;28;20091;-69
2022/11/29 06:11:57;;;;;;;268.83;34.30;;;;;;;8.09;100.00;101597.59;4937014;28;20127;-69
2022/11/29 06:15:16;;;;;;;173.43;31.88;;;;;;;8.04;100.00;101597.63;4941669;28;20928;-70
2022/11/29 06:18:22;;;;;;;188.27;32.55;;;;;;;8.02;100.00;101596.75;4926919;28;20145;-70
2022/11/29 06:21:10;;;;;;;188.30;31.17;;;;;;;7.98;100.00;101600.31;4940070;28;20051;-69
2022/11/29 06:23:57;;;;;;;84.13;28.17;;;;;;;7.93;100.00;101594.22;4937088;28;20106;-69
2022/11/29 06:26:54;;;;;;;108.18;29.40;;;;;;;7.93;100.00;101597.72;4931390;28;20037;-69
2022/11/29 06:29:50;;;;;;;121.50;30.00;;;;;;;7.93;100.00;101597.72;4919491;28;20807;-69
2022/11/29 06:32:39;;;;;;;88.80;28.35;;;;;;;7.93;100.00;101599.47;4920391;29;20517;-70
2022/11/29 06:35:33;;;;;;;140.73;29.33;;;;;;;7.93;100.00;101600.34;4928893;28;20048;-69
2022/11/29 06:38:18;;;;;;;170.75;30.25;;;;;;;7.93;100.00;101605.59;4911586;28;20072;-69
2022/11/29 06:40:49;;;;;;;99.95;27.73;;;;;;;7.87;100.00;101605.63;4918461;29;20067;-70
2022/11/29 06:43:19;;;;;;;131.23;29.80;;;;;;;7.87;100.00;101613.50;4932002;28;20855;-70
2022/11/29 06:45:56;;;;;;;100.90;29.52;;;;;;;7.87;100.00;101618.75;4931836;28;20080;-69
2022/11/29 06:48:27;;;;;;;93.70;28.17;;;;;;;7.87;100.00;101620.53;4932042;28;20044;-69
2022/11/29 06:51:43;;;;;;;90.93;27.77;;;;;;;7.88;100.00;101632.78;4931439;28;20055;-69
2022/11/29 06:54:24;;;;;;;93.70;28.70;;;;;;;7.88;100.00;101633.63;4924745;29;20059;-70
2022/11/29 06:57:15;;;;;;;85.22;28.33;;;;;;;7.91;100.00;101643.22;4913017;29;20044;-70
2022/11/29 07:00:05;;;;;;;85.45;28.65;;;;;;;7.89;100.00;101645.88;4916099;29;20053;-70
2022/11/29 07:03:17;;;;;;;94.82;27.90;;;;;;;7.87;100.00;101645.00;4916147;29;20527;-70
2022/11/29 07:05:45;;;;;;;88.68;27.88;;;;;;;7.86;100.00;101651.13;4930241;29;20048;-70
2022/11/29 07:08:22;;;;;;;90.53;27.55;;;;;;;7.84;100.00;101649.41;4935870;28;20048;-70
2022/11/29 07:10:54;;;;;;;101.95;28.33;;;;;;;7.85;100.00;101653.78;4924959;29;20048;-70
2022/11/29 07:13:22;;;;;;;97.35;28.58;;;;;;;7.85;100.00;101651.16;4926706;29;20047;-70
2022/11/29 07:15:55;;;;;;;88.75;27.45;;;;;;;7.84;100.00;101654.66;4935235;28;20127;-70
2022/11/29 07:18:37;;;;;;;87.15;27.63;;;;;;;7.86;100.00;101663.41;4933987;29;20044;-70
2022/11/29 07:21:57;;;;;;;146.98;28.88;;;;;;;7.86;100.00;101661.63;4923765;28;20195;-70
2022/11/29 07:24:59;;;;;;;112.78;28.88;;;;;;;7.82;100.00;101664.28;4928361;29;20054;-70
2022/11/29 07:27:44;;;;;;;115.53;26.83;;;;;;;7.81;100.00;101675.66;4925195;29;20135;-70
2022/11/29 07:30:49;;;;;;;103.38;28.73;;;;;;;7.77;100.00;101665.22;4931978;28;20044;-70
2022/11/29 07:33:48;;;;;;;87.82;26.38;;;;;;;7.73;100.00;101678.34;4900826;29;20052;-70
2022/11/29 07:36:53;;;;;;;92.00;27.15;;;;;;;7.72;100.00;101671.34;4934549;29;20042;-70
2022/11/29 07:39:47;;;;;;;94.25;27.27;;;;;;;7.72;100.00;101680.09;4935258;28;20064;-70
2022/11/29 07:42:39;;;;;;;101.32;27.33;;;;;;;7.75;100.00;101681.81;4930760;29;20044;-70
2022/11/29 07:45:19;;;;;;;84.05;26.83;;;;;;;7.74;100.00;101686.22;4935074;29;20131;-70
2022/11/29 07:47:47;;;;;;;74.80;25.25;;;;;;;7.73;100.00;101697.59;4934890;28;20466;-70
2022/11/29 07:50:15;;;;;;;62.17;23.55;;;;;;;7.67;99.66;101696.75;4924310;28;20036;-70
2022/11/29 07:52:43;;;;;;;60.42;21.98;;;;;;;7.61;99.26;101701.16;4935427;28;20040;-70
2022/11/29 07:55:15;;;;;;;55.80;21.48;;;;;;;7.55;99.04;101689.81;4929846;28;20510;-69
2022/11/29 07:57:46;;;;;;;60.08;23.75;;;;;;;7.49;99.29;101692.44;4926377;28;20040;-70
2022/11/29 08:00:14;;;;;;;69.85;23.80;;;;;;;7.49;99.63;101692.44;4923884;29;20083;-70
2022/11/29 08:02:41;;;;;;;69.43;22.60;;;;;;;7.49;99.45;101689.81;4935150;28;20051;-70
2022/11/29 08:05:10;;;;;;;85.57;25.58;;;;;;;7.48;99.53;101691.56;4934938;28;20108;-70
2022/11/29 08:07:40;;;;;;;84.20;25.00;;;;;;;7.46;99.66;101703.81;4935277;28;20044;-70
2022/11/29 08:10:15;;;;;;;70.38;23.70;;;;;;;7.45;99.59;101696.81;4933112;28;20119;-70
2022/11/29 08:12:46;;;;;;;75.05;23.98;;;;;;;7.48;99.97;101701.22;4933188;28;20036;-69
2022/11/29 08:15:14;;;;;;;91.10;25.27;;;;;;;7.48;100.00;101703.84;4934926;28;20055;-70
2022/11/29 08:17:41;;;;;;;82.43;22.90;;;;;;;7.50;100.00;101697.69;4934361;28;20514;-70
2022/11/29 08:20:11;;;;;;;97.47;25.80;;;;;;;7.49;99.86;101709.06;4933243;29;20041;-70
2022/11/29 08:22:38;;;;;;;91.95;24.25;;;;;;;7.47;99.89;101716.06;4934239;28;20052;-70
2022/11/29 08:25:07;;;;;;;103.28;23.38;;;;;;;7.46;99.84;101712.56;4934910;28;20044;-70
2022/11/29 08:27:36;;;;;;;85.13;22.92;;;;;;;7.45;99.92;101718.69;4934312;28;20059;-70
2022/11/29 08:30:05;;;;;;;90.45;23.50;;;;;;;7.47;100.00;101710.81;4934815;28;20044;-70
2022/11/29 08:32:33;;;;;;;82.95;23.50;;;;;;;7.51;100.00;101722.16;4934280;28;20048;-69
2022/11/29 08:35:00;;;;;;;92.93;21.60;;;;;;;7.53;100.00;101729.16;4934319;28;20044;-70
2022/11/29 08:37:28;;;;;;;95.88;23.08;;;;;;;7.53;100.00;101728.28;4934532;29;20100;-70
2022/11/29 08:39:57;;;;;;;76.07;22.13;;;;;;;7.52;100.00;101730.06;4933998;28;20056;-70
2022/11/29 08:42:24;;;;;;;70.03;21.83;;;;;;;7.55;100.00;101732.66;4933580;28;20044;-70
2022/11/29 08:44:51;;;;;;;91.38;24.60;;;;;;;7.57;100.00;101738.78;4934212;28;20789;-70
2022/11/29 08:47:36;;;;;;;90.03;23.85;;;;;;;7.61;100.00;101740.53;4933642;28;20967;-70
2022/11/29 08:50:15;;;;;;;74.55;22.08;;;;;;;7.62;100.00;101741.38;4934274;29;20067;-70
2022/11/29 08:55:38;;;;;;;92.57;21.95;;;;;;;7.64;99.97;101755.38;4933374;28;20043;-70
2022/11/29 08:58:11;;;;;;;77.75;21.95;;;;;;;7.63;100.00;101750.13;4934312;29;20179;-70
2022/11/29 09:00:40;;;;;;;78.05;23.10;;;;;;;7.63;100.00;101747.50;4934003;28;20081;-70
2022/11/29 09:05:53;;;;;;;81.97;21.63;;;;;;;7.66;99.70;101752.72;4934221;29;20059;-70
2022/11/29 09:08:20;;;;;;;59.42;20.00;;;;;;;7.66;99.88;101756.25;4933722;28;20048;-70
2022/11/29 09:10:48;;;;;;;67.28;18.88;;;;;;;7.67;99.94;101755.38;4933401;28;20494;-70
2022/11/29 09:13:16;;;;;;;56.33;18.00;;;;;;;7.69;100.00;101763.22;4933849;28;20046;-70
2022/11/29 09:15:43;;;;;;;57.88;19.67;;;;;;;7.70;100.00;101764.97;4933960;28;20055;-69
2022/11/29 09:18:10;;;;;;;61.78;20.52;;;;;;;7.73;100.00;101765.84;4933900;28;20066;-69
2022/11/29 09:20:45;;;;;;;67.32;20.48;;;;;;;7.80;100.00;101776.28;4933711;28;20036;-69
2022/11/29 09:23:12;;;;;;;70.78;18.92;;;;;;;7.80;100.00;101778.91;4933753;28;20040;-69
2022/11/29 09:25:46;;;;;;;75.93;20.63;;;;;;;7.75;99.57;101778.94;4932559;28;20044;-70
2022/11/29 09:28:13;;;;;;;66.43;20.30;;;;;;;7.73;99.38;101778.97;4933668;28;20040;-69
2022/11/29 09:30:40;;;;;;;60.00;19.33;;;;;;;7.71;99.15;101778.09;4931756;29;20490;-69
2022/11/29 09:33:07;;;;;;;63.33;20.20;;;;;;;7.67;99.16;101786.88;4933565;28;20052;-69
2022/11/29 09:35:34;;;;;;;50.53;18.52;;;;;;;7.67;99.22;101793.84;4933669;28;20067;-69
2022/11/29 09:38:01;;;;;;;57.53;19.60;;;;;;;7.69;99.43;101798.22;4933463;28;20052;-69
2022/11/29 09:40:44;;;;;;;57.30;20.67;;;;;;;7.75;100.00;101799.94;4932971;28;20812;-69
2022/11/29 09:43:41;;;;;;;60.80;20.73;;;;;;;7.81;99.97;101804.31;4933016;29;20050;-69
2022/11/29 09:46:22;;;;;;;55.65;19.40;;;;;;;7.81;99.20;101809.56;4933527;28;20070;-69
2022/11/29 09:49:41;;;;;;;53.88;19.05;;;;;;;7.77;99.05;101808.69;4933526;28;20048;-69
2022/11/29 09:52:45;;;;;;;49.20;19.10;;;;;;;7.74;98.95;101803.44;4933692;28;20051;-69
2022/11/29 09:55:49;;;;;;;53.38;19.65;;;;;;;7.74;98.97;101806.06;4935267;28;20772;-69
2022/11/29 09:58:25;;;;;;;60.35;18.25;;;;;;;7.75;99.05;101807.81;4936012;28;20050;-69
2022/11/29 10:01:07;;;;;;;48.60;17.27;;;;;;;7.80;99.12;101816.56;4935690;28;20040;-69
2022/11/29 10:03:44;;;;;;;53.63;18.02;;;;;;;7.83;98.73;101805.19;4933574;28;20170;-69
2022/11/29 10:06:39;;;;;;;73.05;19.23;;;;;;;7.82;98.65;101819.19;4933210;28;20037;-69
2022/11/29 10:09:22;;;;;;;49.00;17.42;;;;;;;7.78;98.39;101819.19;4933990;28;20482;-69
2022/11/29 10:12:15;;;;;;;49.00;17.60;;;;;;;7.78;98.39;101818.31;4932533;28;20047;-69
2022/11/29 10:15:15;;;;;;;43.97;16.23;;;;;;;7.79;98.00;101817.44;4933279;28;20048;-69
2022/11/29 10:17:57;;;;;;;39.63;15.70;;;;;;;7.82;98.08;101811.31;4933287;28;20047;-69
2022/11/29 10:20:31;;;;;;;44.97;16.17;;;;;;;7.80;97.77;101818.31;4933358;28;20553;-69
2022/11/29 10:23:16;;;;;;;42.33;15.10;;;;;;;7.77;97.72;101814.84;4933040;28;20155;-69
2022/11/29 10:25:50;;;;;;;38.78;14.82;;;;;;;7.76;97.70;101813.09;4919573;28;20108;-69
2022/11/29 10:28:26;;;;;;;35.97;13.07;;;;;;;7.79;97.95;101814.81;4913509;29;20169;-69
2022/11/29 10:30:57;;;;;;;31.33;13.18;;;;;;;7.81;97.51;101817.44;4914211;29;20041;-71
2022/11/29 10:33:29;;;;;;;37.33;13.25;;;;;;;7.81;97.66;101812.19;4915509;29;20574;-69
2022/11/29 10:36:14;;;;;;;32.38;13.95;;;;;;;7.83;97.59;101820.94;4917122;29;20100;-69
2022/11/29 10:38:43;;;;;;;;;;;;;;;7.77;96.96;101820.09;4917174;29;20442;-69
2022/11/29 10:41:19;;;;;;;37.90;13.35;;;;;;;7.72;97.04;101810.47;4934771;29;20424;-69
2022/11/29 10:43:49;;;;;;;28.23;11.43;;;;;;;7.70;96.57;101809.59;4936589;28;20118;-69
2022/11/29 10:46:31;;;;;;;26.75;11.77;;;;;;;7.68;96.52;101808.72;4936062;28;20052;-70
2022/11/29 10:49:03;;;;;;;27.90;12.50;;;;;;;7.67;96.51;101806.97;4936053;28;20048;-69
2022/11/29 10:51:32;;;;;;;28.52;12.68;;;;;;;7.71;97.07;101808.72;4935934;28;20044;-69
2022/11/29 10:54:27;;;;;;;35.13;13.13;;;;;;;7.75;97.02;101811.34;4935735;28;20529;-69
2022/11/29 10:56:59;;;;;;;;;;;;;;;7.76;97.02;101812.19;4916841;29;20052;-69
2022/11/29 10:59:29;;;;;;;42.42;13.70;;;;;;;7.80;97.12;101806.06;4917234;29;20096;-69
2022/11/29 11:01:57;;;;;;;43.63;14.73;;;;;;;7.83;96.76;101810.44;4917084;29;20088;-69
2022/11/29 11:04:43;;;;;;;40.20;14.25;;;;;;;7.82;96.72;101809.56;4917008;29;20032;-69
2022/11/29 11:07:22;;;;;;;35.08;12.73;;;;;;;7.84;97.01;101805.16;4916898;29;20087;-69
2022/11/29 11:09:55;;;;;;;46.10;14.38;;;;;;;7.86;97.16;101811.28;4915953;29;20104;-69
2022/11/29 11:12:30;;;;;;;31.77;13.57;;;;;;;7.93;97.23;101807.78;4916583;29;20048;-72
2022/11/29 11:15:22;;;;;;;83.22;16.33;;;;;;;8.03;97.39;101805.13;4935382;28;20048;-69
2022/11/29 11:18:05;;;;;;;62.67;14.05;;;;;;;8.08;97.33;101806.84;4935994;29;20036;-69
2022/11/29 11:20:41;;;;;;;44.00;13.60;;;;;;;8.10;96.91;101804.19;4935248;28;20070;-69
2022/11/29 11:23:53;;;;;;;41.17;13.40;;;;;;;8.14;96.58;101811.16;4935746;28;20044;-70
2022/11/29 11:26:21;;;;;;;37.63;11.63;;;;;;;8.11;96.01;101820.81;4933064;29;20087;-69
2022/11/29 11:29:00;;;;;;;36.60;12.32;;;;;;;8.07;95.56;101817.34;4935190;28;20036;-69
2022/11/29 11:31:36;;;;;;;36.45;12.15;;;;;;;8.07;95.41;101822.59;4934916;29;20048;-69
2022/11/29 11:34:35;;;;;;;28.45;11.73;;;;;;;8.06;95.60;101819.09;4935490;28;20047;-69
2022/11/29 11:37:15;;;;;;;41.22;13.05;;;;;;;8.05;95.77;101825.22;4935151;28;20071;-69
2022/11/29 11:39:47;;;;;;;42.55;13.77;;;;;;;8.04;95.90;101828.72;4935025;28;21460;-69
2022/11/29 11:42:36;;;;;;;39.17;13.50;;;;;;;8.06;96.13;101828.72;4935665;28;20048;-71
2022/11/29 11:45:09;;;;;;;38.25;14.80;;;;;;;8.10;96.25;101835.72;4934971;28;20048;-69
2022/11/29 11:47:51;;;;;;;29.83;12.88;;;;;;;8.12;95.42;101831.34;4934800;28;20048;-69
2022/11/29 11:50:28;;;;;;;38.45;12.20;;;;;;;8.08;95.23;101833.09;4935273;28;20830;-70
2022/11/29 11:53:01;;;;;;;34.67;13.27;;;;;;;8.05;95.54;101840.09;4935373;28;20075;-69
2022/11/29 11:55:42;;;;;;;37.55;14.43;;;;;;;8.13;95.62;101840.06;4921759;28;20045;-70
2022/11/29 11:58:12;;;;;;;34.33;13.65;;;;;;;8.15;95.72;101835.69;4917285;28;20103;-70
2022/11/29 12:00:44;;;;;;;32.38;12.32;;;;;;;8.19;95.63;101837.44;4922389;29;20040;-70
2022/11/29 12:03:53;;;;;;;28.83;12.35;;;;;;;8.23;95.42;101845.31;4934417;28;20506;-70
2022/11/29 12:06:45;;;;;;;32.85;12.23;;;;;;;8.28;95.40;101841.75;4919384;28;20060;-70
2022/11/29 12:09:59;;;;;;;31.75;13.85;;;;;;;8.29;95.60;101847.00;4934268;29;20725;-70
2022/11/29 12:12:38;;;;;;;38.85;12.90;;;;;;;8.26;95.57;101854.91;4934164;28;20048;-70
2022/11/29 12:15:36;;;;;;;32.92;13.45;;;;;;;8.28;95.63;101852.25;4929755;28;20120;-70
2022/11/29 12:18:26;;;;;;;35.38;12.50;;;;;;;8.27;95.25;101853.16;4928579;29;20048;-70
2022/11/29 12:21:08;;;;;;;35.75;14.43;;;;;;;8.23;95.12;101850.56;4932478;29;20047;-70
2022/11/29 12:23:56;;;;;;;34.42;14.10;;;;;;;8.22;94.90;101858.41;4934707;28;20048;-70
2022/11/29 12:26:39;;;;;;;36.97;14.13;;;;;;;8.17;94.96;101855.81;4932253;28;20053;-70
2022/11/29 12:29:30;;;;;;;42.72;14.88;;;;;;;8.18;95.53;101860.19;4924257;29;20048;-70
2022/11/29 12:32:13;;;;;;;37.90;15.68;;;;;;;8.23;95.64;101865.44;4934968;28;20033;-70
2022/11/29 12:35:15;;;;;;;40.38;14.15;;;;;;;8.28;95.51;101861.03;4929101;28;20424;-70